createdAt,value
2019-01-25T00:00:58.153Z,7.9
2019-01-25T00:01:59.523Z,7.9
2019-01-25T00:03:02.220Z,7.9
2019-01-25T00:04:03.697Z,7.9
2019-01-25T00:05:04.921Z,7.9
2019-01-25T00:06:06.283Z,7.9
2019-01-25T00:07:07.804Z,7.9
2019-01-25T00:08:09.183Z,7.9
2019-01-25T00:09:10.544Z,7.9
2019-01-25T00:10:12.083Z,7.9
2019-01-25T00:11:13.465Z,7.9
2019-01-25T00:12:14.997Z,7.9
2019-01-25T00:13:16.519Z,7.9
2019-01-25T00:14:17.879Z,7.9
2019-01-25T00:15:19.415Z,7.9
2019-01-25T00:16:20.625Z,7.9
2019-01-25T00:17:22.005Z,7.9
2019-01-25T00:18:23.377Z,7.9
2019-01-25T00:19:24.775Z,7.9
2019-01-25T00:20:26.315Z,7.9
2019-01-25T00:21:27.863Z,7.8
2019-01-25T00:22:29.390Z,7.8
2019-01-25T00:23:30.775Z,7.8
2019-01-25T00:24:32.305Z,7.8
2019-01-25T00:25:33.695Z,7.8
2019-01-25T00:26:35.070Z,7.8
2019-01-25T00:27:36.648Z,7.8
2019-01-25T00:28:38.208Z,7.8
2019-01-25T00:29:39.750Z,7.8
2019-01-25T00:30:41.107Z,7.8
2019-01-25T00:31:42.483Z,7.8
2019-01-25T00:32:43.866Z,7.8
2019-01-25T00:33:45.384Z,7.8
2019-01-25T00:34:46.600Z,7.8
2019-01-25T00:35:47.957Z,7.7
2019-01-25T00:36:49.496Z,7.7
2019-01-25T00:37:51.035Z,7.7
2019-01-25T00:38:52.254Z,7.7
2019-01-25T00:39:53.793Z,7.7
2019-01-25T00:40:55.174Z,7.7
2019-01-25T00:41:56.717Z,7.7
2019-01-25T00:42:58.087Z,7.7
2019-01-25T00:43:59.447Z,7.7
2019-01-25T00:45:00.895Z,7.7
2019-01-25T00:46:02.423Z,7.6
2019-01-25T00:47:03.807Z,7.6
2019-01-25T00:48:05.352Z,7.7
2019-01-25T00:49:06.891Z,7.6
2019-01-25T00:50:08.265Z,7.7
2019-01-25T00:51:09.787Z,7.7
2019-01-25T00:52:11.227Z,7.6
2019-01-25T00:53:12.595Z,7.7
2019-01-25T00:54:14.131Z,7.7
2019-01-25T00:55:15.498Z,7.7
2019-01-25T00:56:16.879Z,7.7
2019-01-25T00:57:18.114Z,7.7
2019-01-25T00:58:19.505Z,7.7
2019-01-25T00:59:20.874Z,7.7
2019-01-25T01:00:22.388Z,7.7
2019-01-25T01:01:23.773Z,7.7
2019-01-25T01:02:25.296Z,7.7
2019-01-25T01:03:26.661Z,7.7
2019-01-25T01:04:28.015Z,7.7
2019-01-25T01:05:29.535Z,7.7
2019-01-25T01:06:31.045Z,7.7
2019-01-25T01:07:32.413Z,7.7
2019-01-25T01:08:33.933Z,7.7
2019-01-25T01:09:35.151Z,7.7
2019-01-25T01:10:36.538Z,7.7
2019-01-25T01:11:37.992Z,7.8
2019-01-25T01:12:39.527Z,7.8
2019-01-25T01:13:40.913Z,7.8
2019-01-25T01:14:42.266Z,7.8
2019-01-25T01:15:43.641Z,7.8
2019-01-25T01:16:45.054Z,7.8
2019-01-25T01:17:46.590Z,7.8
2019-01-25T01:18:48.126Z,7.8
2019-01-25T01:19:49.505Z,7.8
2019-01-25T01:20:50.903Z,7.8
2019-01-25T01:21:52.314Z,7.8
2019-01-25T01:22:53.867Z,7.8
2019-01-25T01:23:55.265Z,7.8
2019-01-25T01:24:56.635Z,7.8
2019-01-25T01:25:58.173Z,7.9
2019-01-25T01:26:59.555Z,7.9
2019-01-25T01:28:00.925Z,7.9
2019-01-25T01:29:02.437Z,7.8
2019-01-25T01:30:03.965Z,7.8
2019-01-25T01:31:05.345Z,7.7
2019-01-25T01:32:06.887Z,7.7
2019-01-25T01:33:08.421Z,7.7
2019-01-25T01:34:09.631Z,7.7
2019-01-25T01:35:10.862Z,7.7
2019-01-25T01:36:12.396Z,7.7
2019-01-25T01:37:13.781Z,7.7
2019-01-25T01:38:15.321Z,7.7
2019-01-25T01:39:16.865Z,7.7
2019-01-25T01:40:23.605Z,7.7
2019-01-25T01:41:25.143Z,7.7
2019-01-25T01:42:26.705Z,7.7
2019-01-25T01:43:28.083Z,7.7
2019-01-25T01:44:29.605Z,7.7
2019-01-25T01:45:30.953Z,7.8
2019-01-25T01:46:32.334Z,7.8
2019-01-25T01:47:33.699Z,7.8
2019-01-25T01:48:35.220Z,7.8
2019-01-25T01:49:36.737Z,7.8
2019-01-25T01:50:38.274Z,7.8
2019-01-25T01:51:39.800Z,7.7
2019-01-25T01:52:41.348Z,7.8
2019-01-25T01:53:42.749Z,7.8
2019-01-25T01:54:44.094Z,7.8
2019-01-25T01:55:45.605Z,7.8
2019-01-25T01:56:46.981Z,7.8
2019-01-25T01:57:48.501Z,7.8
2019-01-25T01:58:50.025Z,7.9
2019-01-25T01:59:51.397Z,7.8
2019-01-25T02:00:52.785Z,7.8
2019-01-25T02:01:54.144Z,7.8
2019-01-25T02:02:55.683Z,7.8
2019-01-25T02:03:57.216Z,7.8
2019-01-25T02:04:58.737Z,7.7
2019-01-25T02:06:00.255Z,7.7
2019-01-25T02:07:01.789Z,7.6
2019-01-25T02:08:03.325Z,7.4
2019-01-25T02:09:04.858Z,7.3
2019-01-25T02:10:06.220Z,7.1
2019-01-25T02:11:07.743Z,7.1
2019-01-25T02:12:09.302Z,7.1
2019-01-25T02:13:10.807Z,7.1
2019-01-25T02:14:12.375Z,7.2
2019-01-25T02:15:13.914Z,7.2
2019-01-25T02:16:15.481Z,7.2
2019-01-25T02:17:16.848Z,7.2
2019-01-25T02:18:18.075Z,7.2
2019-01-25T02:19:19.597Z,7.2
2019-01-25T02:20:20.981Z,7.2
2019-01-25T02:21:22.365Z,7.1
2019-01-25T02:22:23.879Z,7.2
2019-01-25T02:23:25.438Z,7.1
2019-01-25T02:24:26.663Z,7.2
2019-01-25T02:25:28.179Z,7.1
2019-01-25T02:26:29.554Z,7.1
2019-01-25T02:27:30.945Z,7.1
2019-01-25T02:28:32.455Z,7.2
2019-01-25T02:29:33.662Z,7.1
2019-01-25T02:30:35.083Z,7.1
2019-01-25T02:31:36.467Z,7.1
2019-01-25T02:32:37.992Z,7.1
2019-01-25T02:33:39.347Z,7.1
2019-01-25T02:34:40.721Z,7.1
2019-01-25T02:35:42.251Z,7.1
2019-01-25T02:36:43.627Z,7.1
2019-01-25T02:37:45.141Z,7.1
2019-01-25T02:38:46.683Z,7.1
2019-01-25T02:39:48.213Z,7.1
2019-01-25T02:40:49.588Z,7.1
2019-01-25T02:41:50.965Z,7.1
2019-01-25T02:42:52.549Z,7.1
2019-01-25T02:43:54.083Z,7.1
2019-01-25T02:44:55.469Z,7.1
2019-01-25T02:45:57.014Z,7.1
2019-01-25T02:46:58.576Z,7.1
2019-01-25T02:47:59.946Z,7.1
2019-01-25T02:49:01.477Z,7.1
2019-01-25T02:50:03.064Z,7.2
2019-01-25T02:51:04.661Z,7.2
2019-01-25T02:52:06.283Z,7.2
2019-01-25T02:53:07.671Z,7.2
2019-01-25T02:54:09.054Z,7.2
2019-01-25T02:55:10.276Z,7.2
2019-01-25T02:56:11.802Z,7.2
2019-01-25T02:57:13.337Z,7.2
2019-01-25T02:58:14.880Z,7.2
2019-01-25T02:59:16.474Z,7.2
2019-01-25T03:00:17.845Z,7.2
2019-01-25T03:01:19.215Z,7.2
2019-01-25T03:02:20.444Z,7.2
2019-01-25T03:03:21.648Z,7.2
2019-01-25T03:04:23.186Z,7.2
2019-01-25T03:05:24.732Z,7.2
2019-01-25T03:06:26.255Z,7.3
2019-01-25T03:07:27.636Z,7.3
2019-01-25T03:08:29.158Z,7.4
2019-01-25T03:09:30.535Z,7.4
2019-01-25T03:10:32.054Z,7.5
2019-01-25T03:11:33.580Z,7.5
2019-01-25T03:12:34.955Z,7.5
2019-01-25T03:13:36.344Z,7.5
2019-01-25T03:14:37.756Z,7.5
2019-01-25T03:16:55.489Z,7.6
2019-01-25T03:17:56.887Z,7.6
2019-01-25T03:18:58.274Z,7.6
2019-01-25T03:19:59.641Z,7.7
2019-01-25T03:21:01.189Z,7.7
2019-01-25T03:22:02.795Z,7.8
2019-01-25T03:23:04.356Z,7.8
2019-01-25T03:24:05.758Z,7.7
2019-01-25T03:25:07.132Z,7.7
2019-01-25T03:26:08.677Z,7.7
2019-01-25T03:27:10.226Z,7.7
2019-01-25T03:28:11.587Z,7.7
2019-01-25T03:29:12.964Z,7.7
2019-01-25T03:30:14.353Z,7.8
2019-01-25T03:31:15.622Z,7.8
2019-01-25T03:32:17.227Z,7.8
2019-01-25T03:33:18.662Z,7.8
2019-01-25T03:34:20.222Z,7.8
2019-01-25T03:35:21.633Z,7.8
2019-01-25T03:36:23.157Z,7.8
2019-01-25T03:37:24.656Z,7.8
2019-01-25T03:38:26.189Z,7.7
2019-01-25T03:39:27.247Z,7.7
2019-01-25T03:40:28.469Z,7.7
2019-01-25T03:41:29.675Z,7.6
2019-01-25T03:42:30.905Z,7.6
2019-01-25T03:43:32.298Z,7.6
2019-01-25T03:44:33.837Z,7.5
2019-01-25T03:45:35.346Z,7.5
2019-01-25T03:46:36.885Z,7.5
2019-01-25T03:47:38.403Z,7.5
2019-01-25T03:48:39.616Z,7.5
2019-01-25T03:49:41.151Z,7.5
2019-01-25T03:50:42.719Z,7.5
2019-01-25T03:51:44.264Z,7.5
2019-01-25T03:52:45.811Z,7.5
2019-01-25T03:53:47.336Z,7.4
2019-01-25T03:54:48.855Z,7.4
2019-01-25T03:55:50.096Z,7.4
2019-01-25T03:56:51.475Z,7.4
2019-01-25T03:57:52.845Z,7.4
2019-01-25T03:58:54.398Z,7.4
2019-01-25T03:59:55.938Z,7.4
2019-01-25T04:00:57.456Z,7.5
2019-01-25T04:01:58.555Z,7.5
2019-01-25T04:03:00.420Z,7.6
2019-01-25T04:04:01.947Z,7.6
2019-01-25T04:05:03.504Z,7.7
2019-01-25T04:06:04.880Z,7.7
2019-01-25T04:07:06.447Z,7.7
2019-01-25T04:08:08.005Z,7.7
2019-01-25T04:09:09.215Z,7.8
2019-01-25T04:10:10.738Z,7.8
2019-01-25T04:11:11.988Z,7.8
2019-01-25T04:12:13.219Z,7.8
2019-01-25T04:13:14.760Z,7.8
2019-01-25T04:14:16.300Z,7.2
2019-01-25T04:15:17.571Z,7.2
2019-01-25T04:16:18.977Z,7.2
2019-01-25T04:17:20.347Z,7.2
2019-01-25T04:18:21.745Z,7.2
2019-01-25T04:19:23.135Z,7.2
2019-01-25T04:20:24.757Z,7.2
2019-01-25T04:21:26.322Z,7.1
2019-01-25T04:22:27.996Z,7.2
2019-01-25T04:23:29.542Z,7.1
2019-01-25T04:24:31.093Z,7.2
2019-01-25T04:25:32.646Z,7.2
2019-01-25T04:26:34.236Z,7.2
2019-01-25T04:27:35.644Z,7.2
2019-01-25T04:28:37.189Z,7.2
2019-01-25T04:29:38.768Z,7.2
2019-01-25T04:30:40.317Z,7.2
2019-01-25T04:31:41.712Z,7.2
2019-01-25T04:32:43.159Z,7.2
2019-01-25T04:33:44.601Z,7.2
2019-01-25T04:34:46.038Z,7.2
2019-01-25T04:35:47.571Z,7.3
2019-01-25T04:36:49.115Z,7.3
2019-01-25T04:37:50.645Z,7.4
2019-01-25T04:38:52.017Z,7.4
2019-01-25T04:39:53.386Z,7.6
2019-01-25T04:40:54.643Z,7.7
2019-01-25T04:41:55.885Z,7.8
2019-01-25T04:42:57.111Z,7.9
2019-01-25T04:43:58.346Z,7.9
2019-01-25T04:44:59.874Z,7.9
2019-01-25T04:46:01.244Z,7.9
2019-01-25T04:47:02.612Z,7.9
2019-01-25T04:48:03.848Z,7.9
2019-01-25T04:49:05.246Z,7.9
2019-01-25T04:50:06.828Z,7.9
2019-01-25T04:51:08.390Z,7.9
2019-01-25T04:52:09.784Z,7.9
2019-01-25T04:53:11.360Z,7.9
2019-01-25T04:54:12.889Z,7.9
2019-01-25T04:55:14.282Z,7.9
2019-01-25T04:56:15.662Z,7.9
2019-01-25T04:57:17.186Z,7.9
2019-01-25T04:58:18.753Z,7.9
2019-01-25T04:59:20.153Z,7.8
2019-01-25T05:00:21.534Z,7.8
2019-01-25T05:01:22.968Z,7.8
2019-01-25T05:02:24.339Z,7.2
2019-01-25T05:03:25.786Z,7.2
2019-01-25T05:04:27.014Z,7.2
2019-01-25T05:05:28.414Z,7.3
2019-01-25T05:06:29.953Z,7.3
2019-01-25T05:07:31.481Z,7.3
2019-01-25T05:08:33.012Z,7.3
2019-01-25T05:09:34.373Z,7.3
2019-01-25T05:10:35.765Z,7.3
2019-01-25T05:11:37.281Z,7.3
2019-01-25T05:12:38.836Z,7.3
2019-01-25T05:13:40.375Z,7.2
2019-01-25T05:14:41.918Z,7.2
2019-01-25T05:15:43.289Z,7.2
2019-01-25T05:16:44.829Z,7.2
2019-01-25T05:17:46.384Z,7.2
2019-01-25T05:18:47.943Z,7.2
2019-01-25T05:19:49.345Z,7.2
2019-01-25T05:20:52.415Z,7.2
2019-01-25T05:21:53.941Z,7.2
2019-01-25T05:22:55.481Z,7.3
2019-01-25T05:23:56.880Z,7.3
2019-01-25T05:24:58.250Z,7.3
2019-01-25T05:25:59.796Z,7.3
2019-01-25T05:27:01.343Z,7.3
2019-01-25T05:28:02.866Z,7.3
2019-01-25T05:29:04.260Z,7.2
2019-01-25T05:30:05.802Z,7.2
2019-01-25T05:31:07.204Z,7.2
2019-01-25T05:32:08.293Z,7.2
2019-01-25T05:33:09.708Z,7.2
2019-01-25T05:34:11.318Z,7.2
2019-01-25T05:35:12.764Z,7.2
2019-01-25T05:36:14.142Z,7.2
2019-01-25T05:37:15.402Z,7.2
2019-01-25T05:38:16.964Z,7.2
2019-01-25T05:39:18.493Z,7.2
2019-01-25T05:40:20.071Z,7.2
2019-01-25T05:41:29.998Z,7.2
2019-01-25T05:42:31.210Z,7.2
2019-01-25T05:43:32.768Z,7.2
2019-01-25T05:44:34.026Z,7.2
2019-01-25T05:45:35.380Z,7.2
2019-01-25T05:46:36.914Z,7.2
2019-01-25T05:47:38.296Z,7.2
2019-01-25T05:48:39.869Z,7.2
2019-01-25T05:49:41.255Z,7.2
2019-01-25T05:50:42.476Z,7.2
2019-01-25T05:51:44.104Z,7.2
2019-01-25T05:52:45.508Z,7.2
2019-01-25T05:53:46.614Z,7.2
2019-01-25T05:54:48.036Z,7.2
2019-01-25T05:55:49.415Z,7.2
2019-01-25T05:56:50.645Z,7.2
2019-01-25T05:57:51.853Z,7.3
2019-01-25T05:58:53.063Z,7.3
2019-01-25T05:59:54.445Z,7.4
2019-01-25T06:00:55.661Z,7.4
2019-01-25T06:01:57.214Z,7.5
2019-01-25T06:02:58.577Z,7.5
2019-01-25T06:03:59.957Z,7.5
2019-01-25T06:05:01.634Z,7.5
2019-01-25T06:06:03.174Z,7.5
2019-01-25T06:07:04.702Z,7.5
2019-01-25T06:08:06.244Z,7.4
2019-01-25T06:09:07.452Z,7.4
2019-01-25T06:10:08.851Z,7.3
2019-01-25T06:11:10.385Z,7.3
2019-01-25T06:12:11.749Z,7.2
2019-01-25T06:13:13.137Z,7.2
2019-01-25T06:14:14.687Z,7.2
2019-01-25T06:15:16.074Z,7.2
2019-01-25T06:16:17.593Z,7.2
2019-01-25T06:17:19.128Z,7.2
2019-01-25T06:18:20.523Z,7.2
2019-01-25T06:19:22.088Z,7.2
2019-01-25T06:20:23.728Z,7.2
2019-01-25T06:21:24.885Z,7.2
2019-01-25T06:22:26.436Z,7.2
2019-01-25T06:23:27.970Z,7.2
2019-01-25T06:24:29.380Z,7.3
2019-01-25T06:25:30.912Z,7.3
2019-01-25T06:26:32.464Z,7.3
2019-01-25T06:27:33.984Z,7.4
2019-01-25T06:28:35.199Z,7.5
2019-01-25T06:29:36.719Z,7.6
2019-01-25T06:30:38.269Z,7.7
2019-01-25T06:31:39.634Z,7.8
2019-01-25T06:32:40.850Z,7.9
2019-01-25T06:33:42.390Z,7.9
2019-01-25T06:34:43.915Z,7.9
2019-01-25T06:35:45.315Z,7.9
2019-01-25T06:36:46.882Z,7.9
2019-01-25T06:37:48.084Z,7.9
2019-01-25T06:38:49.593Z,7.8
2019-01-25T06:39:51.130Z,7.8
2019-01-25T06:40:52.354Z,7.8
2019-01-25T06:41:53.874Z,7.8
2019-01-25T06:42:55.265Z,7.8
2019-01-25T06:43:56.783Z,7.8
2019-01-25T06:44:58.159Z,7.8
2019-01-25T06:45:59.684Z,7.8
2019-01-25T06:47:01.237Z,7.8
2019-01-25T06:48:02.777Z,7.8
2019-01-25T06:49:04.151Z,7.8
2019-01-25T06:50:05.691Z,7.8
2019-01-25T06:51:06.905Z,7.8
2019-01-25T06:52:08.279Z,7.8
2019-01-25T06:53:09.826Z,7.8
2019-01-25T06:54:11.391Z,7.7
2019-01-25T06:55:12.600Z,7.7
2019-01-25T06:56:13.964Z,7.7
2019-01-25T06:57:15.355Z,7.7
2019-01-25T06:58:16.881Z,7.7
2019-01-25T06:59:18.413Z,7.7
2019-01-25T07:00:20.003Z,7.8
2019-01-25T07:01:21.054Z,7.8
2019-01-25T07:02:22.416Z,7.8
2019-01-25T07:03:23.795Z,7.7
2019-01-25T07:04:25.354Z,7.7
2019-01-25T07:05:26.888Z,7.7
2019-01-25T07:06:28.273Z,7.7
2019-01-25T07:07:29.685Z,7.7
2019-01-25T07:08:31.055Z,7.7
2019-01-25T07:09:32.160Z,7.7
2019-01-25T07:10:33.533Z,7.7
2019-01-25T07:11:42.535Z,7.7
2019-01-25T07:12:43.829Z,7.7
2019-01-25T07:13:45.363Z,7.7
2019-01-25T07:14:46.755Z,7.7
2019-01-25T07:15:48.174Z,7.7
2019-01-25T07:16:49.556Z,7.7
2019-01-25T07:17:51.094Z,7.6
2019-01-25T07:18:52.487Z,7.7
2019-01-25T07:19:54.081Z,7.7
2019-01-25T07:20:55.656Z,7.7
2019-01-25T07:21:57.260Z,7.7
2019-01-25T07:22:58.833Z,7.7
2019-01-25T07:24:00.228Z,7.7
2019-01-25T07:25:01.789Z,7.7
2019-01-25T07:26:03.366Z,7.7
2019-01-25T07:27:04.786Z,7.7
2019-01-25T07:28:06.202Z,7.7
2019-01-25T07:29:07.192Z,7.7
2019-01-25T07:30:08.791Z,7.8
2019-01-25T07:31:10.448Z,7.7
2019-01-25T07:32:12.203Z,7.7
2019-01-25T07:33:13.947Z,7.7
2019-01-25T07:34:15.538Z,7.8
2019-01-25T07:35:16.969Z,7.8
2019-01-25T07:36:18.476Z,7.5
2019-01-25T07:37:20.082Z,7.6
2019-01-25T07:38:21.546Z,7.6
2019-01-25T07:39:23.009Z,7.6
2019-01-25T07:40:24.485Z,7.7
2019-01-25T07:41:26.116Z,7.7
2019-01-25T07:42:27.692Z,7.6
2019-01-25T07:43:29.373Z,7.6
2019-01-25T07:44:31.027Z,7.6
2019-01-25T07:45:32.496Z,7.5
2019-01-25T07:46:33.921Z,7.4
2019-01-25T07:47:35.426Z,7.3
2019-01-25T07:48:37.030Z,7.2
2019-01-25T07:49:38.641Z,7.2
2019-01-25T07:50:40.281Z,7.2
2019-01-25T07:51:41.756Z,7.2
2019-01-25T07:52:58.114Z,7.1
2019-01-25T07:53:59.832Z,7.2
2019-01-25T07:55:01.656Z,7.2
2019-01-25T07:56:03.252Z,7.2
2019-01-25T07:57:04.915Z,7.2
2019-01-25T07:58:06.503Z,7.2
2019-01-25T07:59:08.187Z,7.2
2019-01-25T08:00:09.886Z,7.2
2019-01-25T08:01:11.803Z,7.2
2019-01-25T08:02:13.578Z,7.3
2019-01-25T08:03:15.155Z,7.3
2019-01-25T08:04:16.675Z,7.4
2019-01-25T08:05:18.491Z,7.5
2019-01-25T08:06:20.133Z,7.5
2019-01-25T08:07:21.612Z,7.6
2019-01-25T08:08:23.320Z,7.7
2019-01-25T08:09:24.775Z,7.7
2019-01-25T08:10:26.093Z,7.8
2019-01-25T08:11:27.730Z,7.8
2019-01-25T08:12:29.332Z,7.8
2019-01-25T08:13:31.064Z,7.8
2019-01-25T08:14:32.537Z,7.8
2019-01-25T08:15:34.038Z,7.8
2019-01-25T08:16:35.306Z,7.8
2019-01-25T08:17:37.062Z,7.8
2019-01-25T08:18:38.795Z,7.8
2019-01-25T08:19:40.485Z,7.8
2019-01-25T08:20:42.091Z,7.8
2019-01-25T08:21:43.532Z,7.8
2019-01-25T08:22:45.074Z,7.9
2019-01-25T08:23:46.611Z,7.9
2019-01-25T08:24:48.481Z,7.9
2019-01-25T08:25:50.130Z,7.9
2019-01-25T08:26:51.964Z,7.8
2019-01-25T08:27:53.608Z,7.9
2019-01-25T08:28:55.261Z,7.9
2019-01-25T08:29:56.896Z,7.9
2019-01-25T08:30:58.436Z,7.9
2019-01-25T08:31:59.994Z,7.9
2019-01-25T08:33:02.896Z,7.9
2019-01-25T08:34:04.363Z,7.9
2019-01-25T08:35:06.121Z,7.9
2019-01-25T08:36:07.952Z,7.9
2019-01-25T08:37:09.805Z,7.9
2019-01-25T08:38:11.647Z,7.9
2019-01-25T08:39:13.187Z,7.9
2019-01-25T08:40:14.868Z,7.9
2019-01-25T08:41:16.447Z,7.9
2019-01-25T08:42:17.864Z,7.9
2019-01-25T08:43:19.387Z,7.9
2019-01-25T08:44:21.086Z,7.9
2019-01-25T08:45:22.532Z,7.9
2019-01-25T08:46:24.271Z,7.9
2019-01-25T08:47:25.933Z,7.9
2019-01-25T08:48:30.095Z,7.9
2019-01-25T08:49:31.803Z,7.8
2019-01-25T08:50:33.366Z,7.8
2019-01-25T08:51:35.685Z,7.8
2019-01-25T08:52:37.517Z,7.8
2019-01-25T08:53:38.833Z,7.7
2019-01-25T08:54:40.440Z,7.7
2019-01-25T08:55:41.927Z,7.7
2019-01-25T08:56:43.355Z,7.7
2019-01-25T08:57:45.077Z,7.7
2019-01-25T08:58:46.375Z,7.6
2019-01-25T08:59:48.092Z,7.6
2019-01-25T09:00:49.487Z,7.6
2019-01-25T09:01:50.562Z,7.6
2019-01-25T09:02:51.936Z,7.6
2019-01-25T09:03:53.471Z,7.6
2019-01-25T09:04:54.862Z,7.4
2019-01-25T09:05:56.399Z,7.4
2019-01-25T09:06:57.954Z,7.5
2019-01-25T09:07:59.500Z,7.5
2019-01-25T09:09:01.056Z,7.5
2019-01-25T09:10:02.485Z,7.4
2019-01-25T09:11:03.757Z,7.4
2019-01-25T09:12:05.163Z,7.4
2019-01-25T09:13:06.692Z,7.3
2019-01-25T09:14:08.281Z,7.2
2019-01-25T09:15:09.686Z,7.2
2019-01-25T09:16:11.077Z,7.2
2019-01-25T09:17:12.456Z,7.2
2019-01-25T09:18:13.852Z,7.2
2019-01-25T09:19:15.400Z,7.2
2019-01-25T09:20:16.964Z,7.2
2019-01-25T09:21:18.583Z,7.2
2019-01-25T09:22:20.206Z,7.2
2019-01-25T09:23:21.523Z,7.2
2019-01-25T09:24:23.087Z,7.2
2019-01-25T09:25:24.636Z,7.2
2019-01-25T09:26:26.165Z,7.2
2019-01-25T09:27:27.715Z,7.2
2019-01-25T09:28:29.254Z,7.2
2019-01-25T09:29:30.649Z,7.2
2019-01-25T09:30:32.185Z,7.3
2019-01-25T09:31:33.591Z,7.3
2019-01-25T09:32:34.819Z,7.4
2019-01-25T09:33:35.924Z,7.5
2019-01-25T09:34:37.029Z,7.5
2019-01-25T09:35:38.571Z,7.6
2019-01-25T09:36:39.957Z,7.6
2019-01-25T09:37:41.495Z,7.7
2019-01-25T09:38:43.044Z,7.8
2019-01-25T09:39:44.581Z,7.8
2019-01-25T09:40:46.124Z,7.8
2019-01-25T09:41:47.702Z,7.8
2019-01-25T09:42:49.101Z,7.8
2019-01-25T09:43:50.695Z,7.8
2019-01-25T09:44:52.263Z,7.8
2019-01-25T09:45:53.503Z,7.8
2019-01-25T09:46:54.946Z,7.8
2019-01-25T09:47:56.516Z,7.9
2019-01-25T09:48:58.050Z,7.9
2019-01-25T09:49:59.616Z,7.9
2019-01-25T09:51:01.150Z,7.9
2019-01-25T09:52:02.443Z,7.9
2019-01-25T09:53:03.985Z,7.8
2019-01-25T09:54:05.540Z,7.9
2019-01-25T09:55:06.917Z,7.8
2019-01-25T09:56:08.497Z,7.8
2019-01-25T09:57:09.954Z,7.8
2019-01-25T09:58:11.485Z,7.8
2019-01-25T09:59:12.873Z,7.8
2019-01-25T10:00:14.093Z,7.8
2019-01-25T10:01:15.474Z,7.8
2019-01-25T10:02:17.006Z,7.8
2019-01-25T10:03:18.232Z,7.8
2019-01-25T10:04:19.779Z,7.8
2019-01-25T10:05:21.317Z,7.8
2019-01-25T10:06:22.556Z,7.8
2019-01-25T10:07:24.093Z,7.8
2019-01-25T10:08:25.322Z,7.8
2019-01-25T10:09:26.854Z,7.8
2019-01-25T10:10:28.400Z,7.9
2019-01-25T10:11:29.932Z,7.9
2019-01-25T10:12:44.616Z,7.9
2019-01-25T10:13:46.164Z,7.9
2019-01-25T10:14:47.695Z,7.9
2019-01-25T10:15:49.086Z,7.9
2019-01-25T10:16:50.636Z,7.9
2019-01-25T10:17:52.007Z,7.8
2019-01-25T10:18:53.543Z,7.2
2019-01-25T10:19:54.756Z,7.3
2019-01-25T10:20:56.136Z,7.3
2019-01-25T10:21:57.714Z,7.3
2019-01-25T10:22:58.951Z,7.3
2019-01-25T10:24:00.330Z,7.4
2019-01-25T10:25:01.944Z,7.4
2019-01-25T10:26:03.162Z,7.4
2019-01-25T10:27:04.730Z,7.5
2019-01-25T10:28:06.288Z,7.5
2019-01-25T10:29:07.684Z,7.5
2019-01-25T10:30:09.053Z,7.5
2019-01-25T10:31:10.491Z,7.6
2019-01-25T10:32:12.016Z,7.6
2019-01-25T10:33:13.574Z,7.6
2019-01-25T10:34:14.942Z,7.6
2019-01-25T10:35:16.354Z,7.6
2019-01-25T10:36:17.885Z,7.7
2019-01-25T10:37:19.304Z,7.7
2019-01-25T10:38:20.685Z,7.7
2019-01-25T10:39:22.082Z,7.7
2019-01-25T10:40:23.631Z,7.8
2019-01-25T10:41:25.170Z,7.7
2019-01-25T10:42:26.581Z,7.7
2019-01-25T10:43:28.125Z,7.6
2019-01-25T10:44:29.655Z,7.5
2019-01-25T10:45:31.208Z,7.4
2019-01-25T10:46:32.576Z,7.3
2019-01-25T10:47:33.955Z,7.2
2019-01-25T10:48:35.494Z,7.2
2019-01-25T10:49:37.032Z,7.2
2019-01-25T10:50:38.448Z,7.2
2019-01-25T10:51:39.986Z,7.2
2019-01-25T10:52:41.514Z,7.2
2019-01-25T10:53:43.042Z,7.2
2019-01-25T10:54:44.634Z,7.2
2019-01-25T10:55:46.009Z,7.2
2019-01-25T10:56:47.251Z,7.2
2019-01-25T10:57:48.812Z,7.2
2019-01-25T10:58:50.383Z,7.2
2019-01-25T10:59:51.754Z,7.2
2019-01-25T11:00:53.139Z,7.2
2019-01-25T11:01:54.516Z,7.2
2019-01-25T11:03:00.023Z,7.2
2019-01-25T11:04:01.573Z,7.2
2019-01-25T11:05:02.953Z,7.3
2019-01-25T11:06:04.477Z,7.3
2019-01-25T11:07:05.856Z,7.4
2019-01-25T11:08:07.404Z,7.5
2019-01-25T11:09:08.828Z,7.6
2019-01-25T11:10:10.373Z,7.7
2019-01-25T11:11:11.915Z,7.8
2019-01-25T11:12:13.202Z,7.8
2019-01-25T11:13:14.931Z,7.9
2019-01-25T11:14:16.482Z,7.9
2019-01-25T11:15:17.552Z,7.9
2019-01-25T11:16:18.794Z,7.9
2019-01-25T11:17:20.162Z,7.9
2019-01-25T11:18:21.396Z,7.9
2019-01-25T11:19:22.795Z,7.9
2019-01-25T11:20:24.196Z,7.9
2019-01-25T11:21:25.724Z,7.9
2019-01-25T11:22:27.252Z,7.9
2019-01-25T11:23:28.804Z,7.9
2019-01-25T11:24:30.181Z,7.9
2019-01-25T11:25:31.722Z,7.8
2019-01-25T11:26:33.090Z,7.8
2019-01-25T11:27:34.644Z,7.8
2019-01-25T11:28:36.207Z,7.8
2019-01-25T11:29:37.735Z,7.8
2019-01-25T11:30:39.313Z,7.8
2019-01-25T11:31:40.832Z,7.8
2019-01-25T11:32:42.410Z,7.8
2019-01-25T11:33:43.794Z,7.8
2019-01-25T11:34:45.358Z,7.8
2019-01-25T11:35:46.746Z,7.8
2019-01-25T11:36:48.282Z,7.8
2019-01-25T11:37:49.670Z,7.9
2019-01-25T11:38:51.058Z,7.9
2019-01-25T11:39:52.457Z,7.9
2019-01-25T11:40:53.994Z,7.9
2019-01-25T11:41:55.516Z,7.9
2019-01-25T11:42:57.060Z,7.9
2019-01-25T11:43:58.596Z,7.8
2019-01-25T11:44:59.985Z,7.8
2019-01-25T11:46:01.557Z,7.8
2019-01-25T11:47:03.137Z,7.8
2019-01-25T11:48:04.688Z,7.8
2019-01-25T11:49:06.061Z,7.8
2019-01-25T11:50:07.607Z,7.8
2019-01-25T11:51:09.148Z,7.8
2019-01-25T11:52:10.546Z,7.8
2019-01-25T11:53:12.120Z,7.8
2019-01-25T11:54:13.517Z,7.8
2019-01-25T11:55:15.090Z,7.8
2019-01-25T11:56:16.640Z,7.9
2019-01-25T11:57:18.056Z,7.9
2019-01-25T11:58:19.511Z,7.8
2019-01-25T11:59:20.722Z,7.8
2019-01-25T12:00:22.282Z,7.8
2019-01-25T12:01:23.826Z,7.8
2019-01-25T12:02:25.340Z,7.8
2019-01-25T12:03:26.753Z,7.8
2019-01-25T12:04:28.287Z,7.8
2019-01-25T12:05:29.825Z,7.8
2019-01-25T12:06:31.347Z,7.7
2019-01-25T12:07:32.585Z,7.7
2019-01-25T12:08:33.968Z,7.8
2019-01-25T12:09:35.365Z,7.8
2019-01-25T12:10:36.904Z,7.8
2019-01-25T12:11:38.438Z,7.8
2019-01-25T12:12:39.821Z,7.8
2019-01-25T12:13:41.225Z,7.8
2019-01-25T12:14:42.784Z,7.2
2019-01-25T12:15:44.143Z,7.2
2019-01-25T12:16:45.573Z,7.3
2019-01-25T12:17:47.124Z,7.3
2019-01-25T12:18:48.589Z,7.3
2019-01-25T12:19:49.818Z,7.3
2019-01-25T12:20:51.196Z,7.3
2019-01-25T12:21:52.777Z,7.3
2019-01-25T12:22:54.170Z,7.3
2019-01-25T12:23:55.707Z,7.3
2019-01-25T12:24:57.254Z,7.3
2019-01-25T12:25:58.785Z,7.2
2019-01-25T12:27:00.165Z,7.2
2019-01-25T12:28:06.813Z,7.2
2019-01-25T12:29:08.037Z,7.2
2019-01-25T12:30:09.626Z,7.2
2019-01-25T12:31:11.173Z,7.2
2019-01-25T12:32:12.425Z,7.2
2019-01-25T12:33:13.988Z,7.1
2019-01-25T12:34:15.514Z,7.2
2019-01-25T12:35:17.093Z,7.2
2019-01-25T12:36:18.643Z,7.2
2019-01-25T12:37:20.202Z,7.2
2019-01-25T12:38:21.748Z,7.2
2019-01-25T12:39:23.297Z,7.2
2019-01-25T12:40:24.827Z,7.2
2019-01-25T12:41:26.046Z,7.2
2019-01-25T12:42:27.572Z,7.2
2019-01-25T12:43:28.965Z,7.2
2019-01-25T12:44:30.444Z,7.2
2019-01-25T12:45:31.996Z,7.2
2019-01-25T12:46:33.484Z,7.3
2019-01-25T12:47:34.716Z,7.3
2019-01-25T12:48:36.115Z,7.4
2019-01-25T12:49:37.677Z,7.4
2019-01-25T12:50:39.283Z,7.5
2019-01-25T12:51:40.947Z,7.5
2019-01-25T12:52:42.223Z,7.5
2019-01-25T12:53:43.785Z,7.6
2019-01-25T12:54:45.564Z,7.6
2019-01-25T12:55:47.119Z,7.7
2019-01-25T12:56:48.689Z,7.7
2019-01-25T12:57:50.066Z,7.7
2019-01-25T12:58:51.449Z,7.8
2019-01-25T12:59:52.869Z,7.8
2019-01-25T13:00:54.414Z,7.8
2019-01-25T13:01:56.058Z,7.9
2019-01-25T13:02:57.635Z,7.9
2019-01-25T13:03:59.189Z,7.9
2019-01-25T13:05:00.755Z,7.9
2019-01-25T13:06:02.325Z,7.9
2019-01-25T13:07:03.610Z,7.4
2019-01-25T13:08:05.008Z,7.5
2019-01-25T13:09:06.601Z,7.7
2019-01-25T13:10:08.139Z,7.8
2019-01-25T13:11:09.682Z,7.8
2019-01-25T13:12:11.089Z,7.8
2019-01-25T13:13:12.623Z,7.8
2019-01-25T13:14:14.030Z,7.8
2019-01-25T13:15:15.610Z,7.8
2019-01-25T13:16:17.183Z,7.7
2019-01-25T13:17:18.570Z,7.7
2019-01-25T13:18:19.962Z,7.7
2019-01-25T13:19:21.340Z,7.6
2019-01-25T13:20:22.886Z,7.6
2019-01-25T13:21:24.428Z,7.6
2019-01-25T13:22:25.947Z,7.5
2019-01-25T13:23:27.490Z,7.5
2019-01-25T13:24:28.957Z,7.4
2019-01-25T13:25:30.774Z,7.4
2019-01-25T13:26:32.183Z,7.4
2019-01-25T13:27:33.456Z,7.4
2019-01-25T13:28:35.665Z,7.4
2019-01-25T13:29:37.406Z,7.3
2019-01-25T13:30:39.292Z,7.4
2019-01-25T13:31:41.048Z,7.4
2019-01-25T13:32:42.807Z,7.4
2019-01-25T13:33:44.435Z,7.4
2019-01-25T13:34:46.046Z,7.3
2019-01-25T13:35:47.813Z,7.3
2019-01-25T13:36:57.420Z,7.2
2019-01-25T13:37:59.018Z,7.2
2019-01-25T13:39:00.424Z,7.2
2019-01-25T13:40:01.994Z,7.2
2019-01-25T13:41:03.556Z,7.2
2019-01-25T13:42:04.984Z,7.2
2019-01-25T13:43:06.235Z,7.2
2019-01-25T13:44:07.661Z,7.2
2019-01-25T13:45:09.244Z,7.2
2019-01-25T13:46:10.643Z,7.2
2019-01-25T13:47:12.231Z,7.2
2019-01-25T13:48:13.637Z,7.2
2019-01-25T13:49:15.031Z,7.2
2019-01-25T13:50:16.567Z,7.2
2019-01-25T13:51:18.111Z,7.2
2019-01-25T13:52:19.507Z,7.2
2019-01-25T13:53:20.896Z,7.2
2019-01-25T13:54:22.313Z,7.2
2019-01-25T13:55:23.725Z,7.2
2019-01-25T13:56:25.160Z,7.2
2019-01-25T13:57:26.565Z,7.2
2019-01-25T13:58:28.143Z,7.2
2019-01-25T13:59:29.742Z,7.3
2019-01-25T14:00:31.328Z,7.3
2019-01-25T14:01:36.348Z,7.3
2019-01-25T14:02:37.778Z,7.4
2019-01-25T14:03:39.270Z,7.4
2019-01-25T14:04:40.500Z,7.4
2019-01-25T14:05:42.054Z,7.4
2019-01-25T14:06:43.461Z,7.4
2019-01-25T14:07:45.049Z,7.3
2019-01-25T14:08:46.626Z,7.2
2019-01-25T14:09:48.003Z,7.2